sensor_id;sensor_type;location;lat;lon;timestamp;temperature;humidity
780;DHT22;373;49.342;8.146;2023-05-14T00:02:25;12.60;99.90
780;DHT22;373;49.342;8.146;2023-05-14T00:04:52;12.60;99.90
780;DHT22;373;49.342;8.146;2023-05-14T00:07:19;12.70;99.90
780;DHT22;373;49.342;8.146;2023-05-14T00:09:46;12.70;99.90
780;DHT22;373;49.342;8.146;2023-05-14T00:12:15;12.70;99.90
780;DHT22;373;49.342;8.146;2023-05-14T00:14:42;12.70;99.90
780;DHT22;373;49.342;8.146;2023-05-14T00:17:09;12.70;99.90
780;DHT22;373;49.342;8.146;2023-05-14T00:19:36;12.60;99.90
780;DHT22;373;49.342;8.146;2023-05-14T00:22:06;12.60;99.90
780;DHT22;373;49.342;8.146;2023-05-14T00:24:33;12.60;99.90
780;DHT22;373;49.342;8.146;2023-05-14T00:27:00;12.60;99.90
780;DHT22;373;49.342;8.146;2023-05-14T00:29:29;12.70;99.90
780;DHT22;373;49.342;8.146;2023-05-14T00:31:56;12.60;99.90
780;DHT22;373;49.342;8.146;2023-05-14T00:34:23;12.60;99.90
780;DHT22;373;49.342;8.146;2023-05-14T00:36:50;12.60;99.90
780;DHT22;373;49.342;8.146;2023-05-14T00:39:17;12.60;99.90
780;DHT22;373;49.342;8.146;2023-05-14T00:41:44;12.60;99.90
780;DHT22;373;49.342;8.146;2023-05-14T00:44:11;12.60;99.90
780;DHT22;373;49.342;8.146;2023-05-14T00:46:40;12.50;99.90
780;DHT22;373;49.342;8.146;2023-05-14T00:49:08;12.50;99.90
780;DHT22;373;49.342;8.146;2023-05-14T00:51:35;12.50;99.90
780;DHT22;373;49.342;8.146;2023-05-14T00:54:03;12.50;99.90
780;DHT22;373;49.342;8.146;2023-05-14T00:56:31;12.50;99.90
780;DHT22;373;49.342;8.146;2023-05-14T00:58:58;12.60;99.90
780;DHT22;373;49.342;8.146;2023-05-14T01:01:25;12.60;99.90
780;DHT22;373;49.342;8.146;2023-05-14T01:03:54;12.60;99.90
780;DHT22;373;49.342;8.146;2023-05-14T01:06:26;12.50;99.90
780;DHT22;373;49.342;8.146;2023-05-14T01:09:02;12.50;99.90
780;DHT22;373;49.342;8.146;2023-05-14T01:11:35;12.70;99.90
780;DHT22;373;49.342;8.146;2023-05-14T01:14:14;12.60;99.90
780;DHT22;373;49.342;8.146;2023-05-14T01:16:44;12.70;99.90
780;DHT22;373;49.342;8.146;2023-05-14T01:19:21;12.80;99.90
780;DHT22;373;49.342;8.146;2023-05-14T01:21:53;12.90;99.90
780;DHT22;373;49.342;8.146;2023-05-14T01:24:20;12.90;99.90
780;DHT22;373;49.342;8.146;2023-05-14T01:26:47;12.80;99.90
780;DHT22;373;49.342;8.146;2023-05-14T01:29:20;12.80;99.90
780;DHT22;373;49.342;8.146;2023-05-14T01:31:49;12.70;99.90
780;DHT22;373;49.342;8.146;2023-05-14T01:34:19;12.60;99.90
780;DHT22;373;49.342;8.146;2023-05-14T01:36:47;12.70;99.90
780;DHT22;373;49.342;8.146;2023-05-14T01:39:16;12.50;99.90
780;DHT22;373;49.342;8.146;2023-05-14T01:41:45;12.60;99.90
780;DHT22;373;49.342;8.146;2023-05-14T01:44:12;12.50;99.90
780;DHT22;373;49.342;8.146;2023-05-14T01:46:39;12.60;99.90
780;DHT22;373;49.342;8.146;2023-05-14T01:49:06;12.60;99.90
780;DHT22;373;49.342;8.146;2023-05-14T01:51:33;12.50;99.90
780;DHT22;373;49.342;8.146;2023-05-14T01:54:01;12.60;99.90
780;DHT22;373;49.342;8.146;2023-05-14T01:56:30;12.60;99.90
780;DHT22;373;49.342;8.146;2023-05-14T01:58:57;12.70;99.90
780;DHT22;373;49.342;8.146;2023-05-14T02:01:24;12.70;99.90
780;DHT22;373;49.342;8.146;2023-05-14T02:03:51;12.70;99.90
780;DHT22;373;49.342;8.146;2023-05-14T02:06:19;12.60;99.90
780;DHT22;373;49.342;8.146;2023-05-14T02:08:47;12.50;99.90
780;DHT22;373;49.342;8.146;2023-05-14T02:11:14;12.40;99.90
780;DHT22;373;49.342;8.146;2023-05-14T02:13:43;12.30;99.90
780;DHT22;373;49.342;8.146;2023-05-14T02:16:10;12.40;99.90
780;DHT22;373;49.342;8.146;2023-05-14T02:18:37;12.50;99.90
780;DHT22;373;49.342;8.146;2023-05-14T02:21:04;12.40;99.90
780;DHT22;373;49.342;8.146;2023-05-14T02:23:31;12.50;99.90
780;DHT22;373;49.342;8.146;2023-05-14T02:25:58;12.50;99.90
780;DHT22;373;49.342;8.146;2023-05-14T02:28:25;12.60;99.90
780;DHT22;373;49.342;8.146;2023-05-14T02:30:58;12.80;99.90
780;DHT22;373;49.342;8.146;2023-05-14T02:33:26;12.80;99.90
780;DHT22;373;49.342;8.146;2023-05-14T02:35:53;12.70;99.90
780;DHT22;373;49.342;8.146;2023-05-14T02:38:21;12.60;99.90
780;DHT22;373;49.342;8.146;2023-05-14T02:40:48;12.60;99.90
780;DHT22;373;49.342;8.146;2023-05-14T02:43:15;12.70;99.90
780;DHT22;373;49.342;8.146;2023-05-14T02:45:42;12.80;99.90
780;DHT22;373;49.342;8.146;2023-05-14T02:48:10;12.60;99.90
780;DHT22;373;49.342;8.146;2023-05-14T02:50:37;12.60;99.90
780;DHT22;373;49.342;8.146;2023-05-14T02:53:05;12.60;99.90
780;DHT22;373;49.342;8.146;2023-05-14T02:55:33;12.40;99.90
780;DHT22;373;49.342;8.146;2023-05-14T02:58:00;12.50;99.90
780;DHT22;373;49.342;8.146;2023-05-14T03:00:28;12.20;99.90
780;DHT22;373;49.342;8.146;2023-05-14T03:02:55;12.20;99.90
780;DHT22;373;49.342;8.146;2023-05-14T03:05:23;12.30;99.90
780;DHT22;373;49.342;8.146;2023-05-14T03:07:51;12.40;99.90
780;DHT22;373;49.342;8.146;2023-05-14T03:10:18;12.40;99.90
780;DHT22;373;49.342;8.146;2023-05-14T03:12:45;12.70;99.90
780;DHT22;373;49.342;8.146;2023-05-14T03:15:13;12.50;99.90
780;DHT22;373;49.342;8.146;2023-05-14T03:17:40;12.50;99.90
780;DHT22;373;49.342;8.146;2023-05-14T03:20:07;12.60;99.90
780;DHT22;373;49.342;8.146;2023-05-14T03:22:36;12.70;99.90
780;DHT22;373;49.342;8.146;2023-05-14T03:25:04;12.70;99.90
780;DHT22;373;49.342;8.146;2023-05-14T03:27:31;12.70;99.90
780;DHT22;373;49.342;8.146;2023-05-14T03:29:59;12.70;99.90
780;DHT22;373;49.342;8.146;2023-05-14T03:32:26;12.80;99.90
780;DHT22;373;49.342;8.146;2023-05-14T03:34:53;12.70;99.90
780;DHT22;373;49.342;8.146;2023-05-14T03:37:20;12.60;99.90
780;DHT22;373;49.342;8.146;2023-05-14T03:39:49;12.60;99.90
780;DHT22;373;49.342;8.146;2023-05-14T03:42:16;12.60;99.90
780;DHT22;373;49.342;8.146;2023-05-14T03:44:43;12.60;99.90
780;DHT22;373;49.342;8.146;2023-05-14T03:47:11;12.40;99.90
780;DHT22;373;49.342;8.146;2023-05-14T03:49:38;12.50;99.90
780;DHT22;373;49.342;8.146;2023-05-14T03:52:08;12.40;99.90
780;DHT22;373;49.342;8.146;2023-05-14T03:54:35;12.50;99.90
780;DHT22;373;49.342;8.146;2023-05-14T03:57:04;12.40;99.90
780;DHT22;373;49.342;8.146;2023-05-14T03:59:31;12.50;99.90
780;DHT22;373;49.342;8.146;2023-05-14T04:01:59;12.70;99.90
780;DHT22;373;49.342;8.146;2023-05-14T04:04:26;12.60;99.90
780;DHT22;373;49.342;8.146;2023-05-14T04:06:54;12.50;99.90
780;DHT22;373;49.342;8.146;2023-05-14T04:09:21;12.70;99.90
780;DHT22;373;49.342;8.146;2023-05-14T04:11:48;12.50;99.90
780;DHT22;373;49.342;8.146;2023-05-14T04:14:17;12.40;99.90
780;DHT22;373;49.342;8.146;2023-05-14T04:16:44;12.30;99.90
780;DHT22;373;49.342;8.146;2023-05-14T04:19:12;12.30;99.90
780;DHT22;373;49.342;8.146;2023-05-14T04:21:39;12.20;99.90
780;DHT22;373;49.342;8.146;2023-05-14T04:24:06;12.20;99.90
780;DHT22;373;49.342;8.146;2023-05-14T04:26:33;12.20;99.90
780;DHT22;373;49.342;8.146;2023-05-14T04:29:01;12.40;99.90
780;DHT22;373;49.342;8.146;2023-05-14T04:31:29;12.40;99.90
780;DHT22;373;49.342;8.146;2023-05-14T04:33:57;12.30;99.90
780;DHT22;373;49.342;8.146;2023-05-14T04:36:24;12.40;99.90
780;DHT22;373;49.342;8.146;2023-05-14T04:38:51;12.40;99.90
780;DHT22;373;49.342;8.146;2023-05-14T04:41:18;12.50;99.90
780;DHT22;373;49.342;8.146;2023-05-14T04:43:48;12.60;99.90
780;DHT22;373;49.342;8.146;2023-05-14T04:46:15;12.70;99.90
780;DHT22;373;49.342;8.146;2023-05-14T04:48:44;13.20;99.90
780;DHT22;373;49.342;8.146;2023-05-14T04:51:11;13.40;99.90
780;DHT22;373;49.342;8.146;2023-05-14T04:53:38;13.50;99.90
780;DHT22;373;49.342;8.146;2023-05-14T04:56:06;13.70;60.50
780;DHT22;373;49.342;8.146;2023-05-14T04:58:33;14.00;33.50
780;DHT22;373;49.342;8.146;2023-05-14T05:01:00;13.70;39.50
780;DHT22;373;49.342;8.146;2023-05-14T05:03:27;13.70;37.50
780;DHT22;373;49.342;8.146;2023-05-14T05:05:56;13.80;46.70
780;DHT22;373;49.342;8.146;2023-05-14T05:08:23;14.00;40.90
780;DHT22;373;49.342;8.146;2023-05-14T05:10:50;13.90;28.90
780;DHT22;373;49.342;8.146;2023-05-14T05:13:17;13.70;47.60
780;DHT22;373;49.342;8.146;2023-05-14T05:15:44;13.60;93.50
780;DHT22;373;49.342;8.146;2023-05-14T05:18:11;13.40;99.90
780;DHT22;373;49.342;8.146;2023-05-14T05:20:38;13.40;99.90
780;DHT22;373;49.342;8.146;2023-05-14T05:23:07;13.40;99.90
780;DHT22;373;49.342;8.146;2023-05-14T05:25:34;13.40;99.90
780;DHT22;373;49.342;8.146;2023-05-14T05:28:01;13.70;91.70
780;DHT22;373;49.342;8.146;2023-05-14T05:30:28;13.80;71.40
780;DHT22;373;49.342;8.146;2023-05-14T05:32:56;13.80;43.10
780;DHT22;373;49.342;8.146;2023-05-14T05:35:23;13.70;87.40
780;DHT22;373;49.342;8.146;2023-05-14T05:37:50;13.60;96.60
780;DHT22;373;49.342;8.146;2023-05-14T05:40:20;13.60;95.00
780;DHT22;373;49.342;8.146;2023-05-14T05:42:47;13.40;92.90
780;DHT22;373;49.342;8.146;2023-05-14T05:45:14;13.50;99.90
780;DHT22;373;49.342;8.146;2023-05-14T05:47:42;13.40;99.50
780;DHT22;373;49.342;8.146;2023-05-14T05:50:10;13.40;99.90
780;DHT22;373;49.342;8.146;2023-05-14T05:52:37;13.30;93.10
780;DHT22;373;49.342;8.146;2023-05-14T05:55:05;13.40;99.90
780;DHT22;373;49.342;8.146;2023-05-14T05:57:34;13.60;99.90
780;DHT22;373;49.342;8.146;2023-05-14T06:00:01;14.00;50.80
780;DHT22;373;49.342;8.146;2023-05-14T06:02:39;14.10;16.80
780;DHT22;373;49.342;8.146;2023-05-14T06:05:07;14.30;5.10
780;DHT22;373;49.342;8.146;2023-05-14T06:07:36;14.60;1.00
780;DHT22;373;49.342;8.146;2023-05-14T06:10:04;14.90;1.00
780;DHT22;373;49.342;8.146;2023-05-14T06:12:33;15.10;1.00
780;DHT22;373;49.342;8.146;2023-05-14T06:15:04;15.30;1.00
780;DHT22;373;49.342;8.146;2023-05-14T06:17:31;15.50;1.00
780;DHT22;373;49.342;8.146;2023-05-14T06:19:59;15.40;1.00
780;DHT22;373;49.342;8.146;2023-05-14T06:22:29;15.40;1.00
780;DHT22;373;49.342;8.146;2023-05-14T06:25:00;15.40;1.00
780;DHT22;373;49.342;8.146;2023-05-14T06:27:27;15.30;1.00
780;DHT22;373;49.342;8.146;2023-05-14T06:29:59;15.20;1.00
780;DHT22;373;49.342;8.146;2023-05-14T06:32:26;14.80;1.00
780;DHT22;373;49.342;8.146;2023-05-14T06:34:56;14.50;1.00
780;DHT22;373;49.342;8.146;2023-05-14T06:37:24;14.50;1.00
780;DHT22;373;49.342;8.146;2023-05-14T06:39:51;14.80;1.00
780;DHT22;373;49.342;8.146;2023-05-14T06:42:22;14.70;1.00
780;DHT22;373;49.342;8.146;2023-05-14T06:44:50;14.60;1.00
780;DHT22;373;49.342;8.146;2023-05-14T06:47:25;14.60;1.00
780;DHT22;373;49.342;8.146;2023-05-14T06:49:53;14.80;1.00
780;DHT22;373;49.342;8.146;2023-05-14T06:52:26;15.10;1.00
780;DHT22;373;49.342;8.146;2023-05-14T06:54:58;15.40;1.00
780;DHT22;373;49.342;8.146;2023-05-14T06:57:39;15.40;1.00
780;DHT22;373;49.342;8.146;2023-05-14T07:00:07;15.60;1.00
780;DHT22;373;49.342;8.146;2023-05-14T07:02:36;15.70;1.00
780;DHT22;373;49.342;8.146;2023-05-14T07:05:03;15.70;1.00
780;DHT22;373;49.342;8.146;2023-05-14T07:07:30;16.10;1.00
780;DHT22;373;49.342;8.146;2023-05-14T07:09:57;16.30;99.90
780;DHT22;373;49.342;8.146;2023-05-14T07:12:25;16.60;99.90
780;DHT22;373;49.342;8.146;2023-05-14T07:14:52;16.60;99.90
780;DHT22;373;49.342;8.146;2023-05-14T07:17:19;16.60;1.00
780;DHT22;373;49.342;8.146;2023-05-14T07:19:47;16.50;1.00
780;DHT22;373;49.342;8.146;2023-05-14T07:22:14;16.70;99.90
780;DHT22;373;49.342;8.146;2023-05-14T07:24:41;16.70;1.00
780;DHT22;373;49.342;8.146;2023-05-14T07:27:09;16.70;99.90
780;DHT22;373;49.342;8.146;2023-05-14T07:29:37;16.60;99.90
780;DHT22;373;49.342;8.146;2023-05-14T07:32:04;16.80;99.90
780;DHT22;373;49.342;8.146;2023-05-14T07:34:31;16.70;99.90
780;DHT22;373;49.342;8.146;2023-05-14T07:37:00;16.80;1.00
780;DHT22;373;49.342;8.146;2023-05-14T07:39:28;16.80;99.90
780;DHT22;373;49.342;8.146;2023-05-14T07:41:55;16.80;49.60
780;DHT22;373;49.342;8.146;2023-05-14T07:44:23;16.90;1.00
780;DHT22;373;49.342;8.146;2023-05-14T07:46:50;17.30;99.90
780;DHT22;373;49.342;8.146;2023-05-14T07:49:17;17.90;1.00
780;DHT22;373;49.342;8.146;2023-05-14T07:51:44;18.40;99.90
780;DHT22;373;49.342;8.146;2023-05-14T07:54:12;19.00;1.00
780;DHT22;373;49.342;8.146;2023-05-14T07:56:39;19.60;99.90
780;DHT22;373;49.342;8.146;2023-05-14T07:59:06;19.60;99.90
780;DHT22;373;49.342;8.146;2023-05-14T08:01:34;19.80;99.90
780;DHT22;373;49.342;8.146;2023-05-14T08:04:01;19.90;99.90
780;DHT22;373;49.342;8.146;2023-05-14T08:06:28;20.30;1.00
780;DHT22;373;49.342;8.146;2023-05-14T08:08:56;20.70;1.00
780;DHT22;373;49.342;8.146;2023-05-14T08:11:24;20.90;1.00
780;DHT22;373;49.342;8.146;2023-05-14T08:13:51;20.80;99.90
780;DHT22;373;49.342;8.146;2023-05-14T08:16:18;21.00;99.90
780;DHT22;373;49.342;8.146;2023-05-14T08:18:46;20.80;99.90
780;DHT22;373;49.342;8.146;2023-05-14T08:21:13;21.00;99.90
780;DHT22;373;49.342;8.146;2023-05-14T08:23:41;20.60;99.90
780;DHT22;373;49.342;8.146;2023-05-14T08:26:08;21.00;99.90
780;DHT22;373;49.342;8.146;2023-05-14T08:28:36;21.50;99.90
780;DHT22;373;49.342;8.146;2023-05-14T08:31:04;21.40;99.90
780;DHT22;373;49.342;8.146;2023-05-14T08:33:31;21.10;99.90
780;DHT22;373;49.342;8.146;2023-05-14T08:35:58;20.90;99.90
780;DHT22;373;49.342;8.146;2023-05-14T08:38:26;20.50;99.90
780;DHT22;373;49.342;8.146;2023-05-14T08:40:56;20.40;99.90
780;DHT22;373;49.342;8.146;2023-05-14T08:43:26;20.80;99.90
780;DHT22;373;49.342;8.146;2023-05-14T08:45:57;20.60;99.90
780;DHT22;373;49.342;8.146;2023-05-14T08:48:30;20.20;99.90
780;DHT22;373;49.342;8.146;2023-05-14T08:51:02;20.20;99.90
780;DHT22;373;49.342;8.146;2023-05-14T08:53:29;20.40;99.90
780;DHT22;373;49.342;8.146;2023-05-14T08:55:58;20.70;99.90
780;DHT22;373;49.342;8.146;2023-05-14T08:58:26;20.50;99.90
780;DHT22;373;49.342;8.146;2023-05-14T09:00:55;20.40;99.90
780;DHT22;373;49.342;8.146;2023-05-14T09:03:22;20.50;99.90
780;DHT22;373;49.342;8.146;2023-05-14T09:05:50;20.70;99.90
780;DHT22;373;49.342;8.146;2023-05-14T09:08:18;20.60;99.90
780;DHT22;373;49.342;8.146;2023-05-14T09:10:45;20.60;99.90
780;DHT22;373;49.342;8.146;2023-05-14T09:13:13;21.00;99.90
780;DHT22;373;49.342;8.146;2023-05-14T09:15:40;21.10;99.90
780;DHT22;373;49.342;8.146;2023-05-14T09:18:09;20.80;99.90
780;DHT22;373;49.342;8.146;2023-05-14T09:20:37;21.30;99.90
780;DHT22;373;49.342;8.146;2023-05-14T09:23:04;21.60;99.90
780;DHT22;373;49.342;8.146;2023-05-14T09:25:32;21.10;99.90
780;DHT22;373;49.342;8.146;2023-05-14T09:27:59;20.60;99.90
780;DHT22;373;49.342;8.146;2023-05-14T09:30:31;20.10;99.90
780;DHT22;373;49.342;8.146;2023-05-14T09:32:59;20.00;99.90
780;DHT22;373;49.342;8.146;2023-05-14T09:35:30;20.20;99.90
780;DHT22;373;49.342;8.146;2023-05-14T09:37:58;19.90;99.90
780;DHT22;373;49.342;8.146;2023-05-14T09:40:25;20.40;99.90
780;DHT22;373;49.342;8.146;2023-05-14T09:42:52;20.50;99.90
780;DHT22;373;49.342;8.146;2023-05-14T09:45:19;20.30;99.90
780;DHT22;373;49.342;8.146;2023-05-14T09:47:46;20.30;99.90
780;DHT22;373;49.342;8.146;2023-05-14T09:50:14;20.60;99.90
780;DHT22;373;49.342;8.146;2023-05-14T09:52:42;20.50;99.90
780;DHT22;373;49.342;8.146;2023-05-14T09:55:09;20.50;99.90
780;DHT22;373;49.342;8.146;2023-05-14T09:57:36;20.50;99.90
780;DHT22;373;49.342;8.146;2023-05-14T10:00:04;20.80;99.90
780;DHT22;373;49.342;8.146;2023-05-14T10:02:35;20.70;99.90
780;DHT22;373;49.342;8.146;2023-05-14T10:05:04;20.20;99.90
780;DHT22;373;49.342;8.146;2023-05-14T10:07:37;20.20;99.90
780;DHT22;373;49.342;8.146;2023-05-14T10:10:11;20.20;99.90
780;DHT22;373;49.342;8.146;2023-05-14T10:12:39;20.00;99.90
780;DHT22;373;49.342;8.146;2023-05-14T10:15:15;19.80;99.90
780;DHT22;373;49.342;8.146;2023-05-14T10:17:47;20.20;99.90
780;DHT22;373;49.342;8.146;2023-05-14T10:20:15;20.60;99.90
780;DHT22;373;49.342;8.146;2023-05-14T10:22:42;20.90;99.90
780;DHT22;373;49.342;8.146;2023-05-14T10:25:11;21.20;99.90
780;DHT22;373;49.342;8.146;2023-05-14T10:27:39;21.70;99.90
780;DHT22;373;49.342;8.146;2023-05-14T10:30:10;21.40;99.90
780;DHT22;373;49.342;8.146;2023-05-14T10:32:39;21.70;99.90
780;DHT22;373;49.342;8.146;2023-05-14T10:35:16;21.30;99.90
780;DHT22;373;49.342;8.146;2023-05-14T10:37:45;20.80;99.90
780;DHT22;373;49.342;8.146;2023-05-14T10:40:13;20.60;99.90
780;DHT22;373;49.342;8.146;2023-05-14T10:42:42;20.30;99.90
780;DHT22;373;49.342;8.146;2023-05-14T10:45:11;20.00;99.90
780;DHT22;373;49.342;8.146;2023-05-14T10:47:41;19.70;99.90
780;DHT22;373;49.342;8.146;2023-05-14T10:50:10;19.60;99.90
780;DHT22;373;49.342;8.146;2023-05-14T10:52:40;20.00;99.90
780;DHT22;373;49.342;8.146;2023-05-14T10:55:11;19.70;99.90
780;DHT22;373;49.342;8.146;2023-05-14T10:57:41;19.90;99.90
780;DHT22;373;49.342;8.146;2023-05-14T11:00:10;20.50;99.90
780;DHT22;373;49.342;8.146;2023-05-14T11:02:40;20.60;99.90
780;DHT22;373;49.342;8.146;2023-05-14T11:05:09;20.20;99.90
780;DHT22;373;49.342;8.146;2023-05-14T11:07:39;20.20;99.90
780;DHT22;373;49.342;8.146;2023-05-14T11:10:08;20.60;99.90
780;DHT22;373;49.342;8.146;2023-05-14T11:12:36;20.70;99.90
780;DHT22;373;49.342;8.146;2023-05-14T11:15:07;20.40;99.90
780;DHT22;373;49.342;8.146;2023-05-14T11:17:36;20.40;99.90
780;DHT22;373;49.342;8.146;2023-05-14T11:20:04;20.30;99.90
780;DHT22;373;49.342;8.146;2023-05-14T11:22:32;19.60;99.90
780;DHT22;373;49.342;8.146;2023-05-14T11:24:59;19.60;99.90
780;DHT22;373;49.342;8.146;2023-05-14T11:27:26;19.40;99.90
780;DHT22;373;49.342;8.146;2023-05-14T11:29:53;19.50;99.90
780;DHT22;373;49.342;8.146;2023-05-14T11:32:22;19.40;99.90
780;DHT22;373;49.342;8.146;2023-05-14T11:34:49;19.50;99.90
780;DHT22;373;49.342;8.146;2023-05-14T11:37:16;19.50;99.90
780;DHT22;373;49.342;8.146;2023-05-14T11:39:48;19.50;99.90
780;DHT22;373;49.342;8.146;2023-05-14T11:42:17;19.80;99.90
780;DHT22;373;49.342;8.146;2023-05-14T11:44:46;19.60;99.90
780;DHT22;373;49.342;8.146;2023-05-14T11:47:14;19.50;99.90
780;DHT22;373;49.342;8.146;2023-05-14T11:49:43;19.60;99.90
780;DHT22;373;49.342;8.146;2023-05-14T11:52:11;19.60;99.90
780;DHT22;373;49.342;8.146;2023-05-14T11:54:39;19.20;99.90
780;DHT22;373;49.342;8.146;2023-05-14T11:57:08;18.90;99.90
780;DHT22;373;49.342;8.146;2023-05-14T11:59:36;19.00;99.90
780;DHT22;373;49.342;8.146;2023-05-14T12:02:04;18.90;99.90
780;DHT22;373;49.342;8.146;2023-05-14T12:04:31;19.10;99.90
780;DHT22;373;49.342;8.146;2023-05-14T12:07:07;19.30;99.90
780;DHT22;373;49.342;8.146;2023-05-14T12:09:36;19.30;99.90
780;DHT22;373;49.342;8.146;2023-05-14T12:12:08;19.30;99.90
780;DHT22;373;49.342;8.146;2023-05-14T12:14:37;19.60;99.90
780;DHT22;373;49.342;8.146;2023-05-14T12:17:12;20.10;99.90
780;DHT22;373;49.342;8.146;2023-05-14T12:19:40;20.30;99.90
780;DHT22;373;49.342;8.146;2023-05-14T12:22:10;20.40;99.90
780;DHT22;373;49.342;8.146;2023-05-14T12:24:38;20.60;99.90
780;DHT22;373;49.342;8.146;2023-05-14T12:27:08;20.30;99.90
780;DHT22;373;49.342;8.146;2023-05-14T12:29:35;20.10;99.90
780;DHT22;373;49.342;8.146;2023-05-14T12:32:07;20.10;99.90
780;DHT22;373;49.342;8.146;2023-05-14T12:34:36;20.10;99.90
780;DHT22;373;49.342;8.146;2023-05-14T12:37:04;20.30;99.90
780;DHT22;373;49.342;8.146;2023-05-14T12:39:33;19.90;99.90
780;DHT22;373;49.342;8.146;2023-05-14T12:42:01;20.20;99.90
780;DHT22;373;49.342;8.146;2023-05-14T12:44:28;20.70;99.90
780;DHT22;373;49.342;8.146;2023-05-14T12:46:55;20.80;99.90
780;DHT22;373;49.342;8.146;2023-05-14T12:49:22;20.80;99.90
780;DHT22;373;49.342;8.146;2023-05-14T12:51:49;20.80;99.90
780;DHT22;373;49.342;8.146;2023-05-14T12:54:17;20.80;99.90
780;DHT22;373;49.342;8.146;2023-05-14T12:56:45;20.40;99.90
780;DHT22;373;49.342;8.146;2023-05-14T12:59:12;20.20;99.90
780;DHT22;373;49.342;8.146;2023-05-14T13:01:39;20.60;99.90
780;DHT22;373;49.342;8.146;2023-05-14T13:04:08;20.40;99.90
780;DHT22;373;49.342;8.146;2023-05-14T13:06:37;20.30;99.90
780;DHT22;373;49.342;8.146;2023-05-14T13:09:04;20.10;99.90
780;DHT22;373;49.342;8.146;2023-05-14T13:11:31;19.90;99.90
780;DHT22;373;49.342;8.146;2023-05-14T13:14:00;20.10;99.90
780;DHT22;373;49.342;8.146;2023-05-14T13:16:28;20.20;99.90
780;DHT22;373;49.342;8.146;2023-05-14T13:18:55;20.70;99.90
780;DHT22;373;49.342;8.146;2023-05-14T13:21:22;20.70;99.90
780;DHT22;373;49.342;8.146;2023-05-14T13:23:50;20.70;99.90
780;DHT22;373;49.342;8.146;2023-05-14T13:26:17;21.00;99.90
780;DHT22;373;49.342;8.146;2023-05-14T13:28:44;21.10;99.90
780;DHT22;373;49.342;8.146;2023-05-14T13:31:12;20.80;99.90
780;DHT22;373;49.342;8.146;2023-05-14T13:33:41;20.70;99.90
780;DHT22;373;49.342;8.146;2023-05-14T13:36:09;20.40;99.90
780;DHT22;373;49.342;8.146;2023-05-14T13:38:37;20.20;99.90
780;DHT22;373;49.342;8.146;2023-05-14T13:41:05;20.40;99.90
780;DHT22;373;49.342;8.146;2023-05-14T13:43:33;20.50;99.90
780;DHT22;373;49.342;8.146;2023-05-14T13:46:02;20.70;99.90
780;DHT22;373;49.342;8.146;2023-05-14T13:48:31;21.20;99.90
780;DHT22;373;49.342;8.146;2023-05-14T13:50:58;21.40;99.90
780;DHT22;373;49.342;8.146;2023-05-14T13:53:25;21.60;99.90
780;DHT22;373;49.342;8.146;2023-05-14T13:55:52;20.90;99.90
780;DHT22;373;49.342;8.146;2023-05-14T13:58:21;20.70;99.90
780;DHT22;373;49.342;8.146;2023-05-14T14:00:49;20.70;99.90
780;DHT22;373;49.342;8.146;2023-05-14T14:03:16;20.40;99.90
780;DHT22;373;49.342;8.146;2023-05-14T14:05:45;20.30;99.90
780;DHT22;373;49.342;8.146;2023-05-14T14:08:12;20.30;99.90
780;DHT22;373;49.342;8.146;2023-05-14T14:10:39;20.50;99.90
780;DHT22;373;49.342;8.146;2023-05-14T14:13:07;20.80;99.90
780;DHT22;373;49.342;8.146;2023-05-14T14:15:34;20.80;99.90
780;DHT22;373;49.342;8.146;2023-05-14T14:18:02;20.90;99.90
780;DHT22;373;49.342;8.146;2023-05-14T14:20:29;21.10;99.90
780;DHT22;373;49.342;8.146;2023-05-14T14:22:58;21.10;99.90
780;DHT22;373;49.342;8.146;2023-05-14T14:25:25;21.10;99.90
780;DHT22;373;49.342;8.146;2023-05-14T14:27:52;21.10;99.90
780;DHT22;373;49.342;8.146;2023-05-14T14:30:19;21.10;99.90
780;DHT22;373;49.342;8.146;2023-05-14T14:32:47;21.10;99.90
780;DHT22;373;49.342;8.146;2023-05-14T14:35:16;20.90;99.90
780;DHT22;373;49.342;8.146;2023-05-14T14:37:44;20.40;99.90
780;DHT22;373;49.342;8.146;2023-05-14T14:40:15;20.50;99.90
780;DHT22;373;49.342;8.146;2023-05-14T14:42:43;20.70;99.90
780;DHT22;373;49.342;8.146;2023-05-14T14:45:10;20.50;99.90
780;DHT22;373;49.342;8.146;2023-05-14T14:47:43;20.10;99.90
780;DHT22;373;49.342;8.146;2023-05-14T14:50:10;19.90;99.90
780;DHT22;373;49.342;8.146;2023-05-14T14:52:38;20.00;99.90
780;DHT22;373;49.342;8.146;2023-05-14T14:55:06;20.00;99.90
780;DHT22;373;49.342;8.146;2023-05-14T14:57:34;19.90;99.90
780;DHT22;373;49.342;8.146;2023-05-14T15:00:02;20.30;99.90
780;DHT22;373;49.342;8.146;2023-05-14T15:02:29;20.60;99.90
780;DHT22;373;49.342;8.146;2023-05-14T15:04:56;20.90;99.90
780;DHT22;373;49.342;8.146;2023-05-14T15:07:23;21.00;99.90
780;DHT22;373;49.342;8.146;2023-05-14T15:09:50;20.40;99.90
780;DHT22;373;49.342;8.146;2023-05-14T15:12:17;19.70;99.90
780;DHT22;373;49.342;8.146;2023-05-14T15:14:46;19.50;99.90
780;DHT22;373;49.342;8.146;2023-05-14T15:17:13;19.50;99.90
780;DHT22;373;49.342;8.146;2023-05-14T15:19:40;19.70;99.90
780;DHT22;373;49.342;8.146;2023-05-14T15:22:07;19.70;99.90
780;DHT22;373;49.342;8.146;2023-05-14T15:24:34;19.70;99.90
780;DHT22;373;49.342;8.146;2023-05-14T15:27:02;19.80;99.90
780;DHT22;373;49.342;8.146;2023-05-14T15:29:29;19.70;99.90
780;DHT22;373;49.342;8.146;2023-05-14T15:31:58;19.60;99.90
780;DHT22;373;49.342;8.146;2023-05-14T15:34:25;19.40;99.90
780;DHT22;373;49.342;8.146;2023-05-14T15:36:52;19.40;99.90
780;DHT22;373;49.342;8.146;2023-05-14T15:39:19;19.70;99.90
780;DHT22;373;49.342;8.146;2023-05-14T15:41:46;20.00;99.90
780;DHT22;373;49.342;8.146;2023-05-14T15:44:13;20.20;99.90
780;DHT22;373;49.342;8.146;2023-05-14T15:46:40;20.40;99.90
780;DHT22;373;49.342;8.146;2023-05-14T15:49:08;20.50;99.90
780;DHT22;373;49.342;8.146;2023-05-14T15:51:35;20.50;99.90
780;DHT22;373;49.342;8.146;2023-05-14T15:54:02;20.30;99.90
780;DHT22;373;49.342;8.146;2023-05-14T15:56:30;20.40;99.90
780;DHT22;373;49.342;8.146;2023-05-14T15:58:57;20.60;99.90
780;DHT22;373;49.342;8.146;2023-05-14T16:01:24;20.70;99.90
780;DHT22;373;49.342;8.146;2023-05-14T16:03:51;20.30;99.90
780;DHT22;373;49.342;8.146;2023-05-14T16:06:20;20.40;99.90
780;DHT22;373;49.342;8.146;2023-05-14T16:08:47;20.40;99.90
780;DHT22;373;49.342;8.146;2023-05-14T16:11:14;20.10;99.90
780;DHT22;373;49.342;8.146;2023-05-14T16:13:41;20.30;99.90
780;DHT22;373;49.342;8.146;2023-05-14T16:16:08;20.20;99.90
780;DHT22;373;49.342;8.146;2023-05-14T16:18:35;20.20;99.90
780;DHT22;373;49.342;8.146;2023-05-14T16:21:03;20.20;99.90
780;DHT22;373;49.342;8.146;2023-05-14T16:23:32;20.20;99.90
780;DHT22;373;49.342;8.146;2023-05-14T16:25:59;20.10;99.90
780;DHT22;373;49.342;8.146;2023-05-14T16:28:26;20.20;99.90
780;DHT22;373;49.342;8.146;2023-05-14T16:30:53;20.20;99.90
780;DHT22;373;49.342;8.146;2023-05-14T16:33:21;20.20;99.90
780;DHT22;373;49.342;8.146;2023-05-14T16:35:48;20.20;99.90
780;DHT22;373;49.342;8.146;2023-05-14T16:38:15;20.40;99.90
780;DHT22;373;49.342;8.146;2023-05-14T16:40:45;20.40;99.90
780;DHT22;373;49.342;8.146;2023-05-14T16:43:12;20.50;99.90